Time;durP1;ratioP1;P1;durP2;ratioP2;P2;SDS_P1;SDS_P2;PMS_P1;PMS_P2;Temp;Humidity;BMP_temperature;BMP_pressure;BME280_temperature;BME280_humidity;BME280_pressure;Samples;Min_cycle;Max_cycle;Signal;HPM_P1;HPM_P2
2022/12/10 00:01:31;;;;;;;17.05;10.73;;;358.80;2329.60;;;;;;5038182;28;20039;-86
2022/12/10 00:03:57;;;;;;;19.52;10.88;;;358.80;2329.60;;;;;;5038429;28;20028;-86
2022/12/10 00:06:25;;;;;;;27.60;13.02;;;358.80;2329.60;;;;;;5071837;28;20491;-86
2022/12/10 00:08:51;;;;;;;25.45;12.68;;;358.70;2329.60;;;;;;5038388;28;20028;-85
2022/12/10 00:11:19;;;;;;;16.65;8.57;;;358.60;2329.60;;;;;;5038012;28;20078;-86
2022/12/10 00:13:46;;;;;;;17.23;9.70;;;358.70;2329.60;;;;;;5037962;28;20024;-86
2022/12/10 00:16:14;;;;;;;18.27;10.93;;;358.60;2329.60;;;;;;5038002;28;20029;-86
2022/12/10 00:18:40;;;;;;;21.90;12.20;;;358.70;2329.60;;;;;;5038064;28;20132;-87
2022/12/10 00:21:12;;;;;;;24.80;10.40;;;358.70;2329.60;;;;;;5071326;28;20528;-85
2022/12/10 00:23:38;;;;;;;19.20;10.53;;;358.70;2329.60;;;;;;5038066;28;20034;-87
2022/12/10 00:26:20;;;;;;;17.63;9.73;;;358.70;2329.60;;;;;;5038063;28;20079;-87
2022/12/10 00:28:47;;;;;;;16.90;9.75;;;358.70;2329.60;;;;;;5037826;28;20021;-86
2022/12/10 00:31:18;;;;;;;20.88;9.50;;;333.40;2329.60;;;;;;5037858;28;20029;-86
2022/12/10 00:33:45;;;;;;;18.27;9.52;;;358.70;2329.60;;;;;;5037802;28;20029;-86
2022/12/10 00:36:17;;;;;;;11.98;7.95;;;358.70;2329.60;;;;;;5070822;28;20109;-86
2022/12/10 00:38:44;;;;;;;19.08;9.98;;;358.70;2329.60;;;;;;5034298;28;20054;-85
2022/12/10 00:41:10;;;;;;;16.02;9.52;;;358.60;2329.60;;;;;;5034284;28;20042;-87
2022/12/10 00:43:36;;;;;;;18.98;9.90;;;358.80;2329.60;;;;;;5034284;28;20037;-86
2022/12/10 00:46:02;;;;;;;19.70;9.68;;;358.80;2329.60;;;;;;5034349;28;20041;-88
2022/12/10 00:48:28;;;;;;;17.00;7.72;;;358.80;2329.60;;;;;;5035389;28;20045;-88
2022/12/10 00:51:06;;;;;;;14.55;8.50;;;358.90;2329.60;;;;;;5035190;28;20056;-87
2022/12/10 00:53:33;;;;;;;12.95;8.30;;;358.90;2329.60;;;;;;5034202;28;20075;-86
2022/12/10 00:55:59;;;;;;;16.77;9.82;;;358.90;2329.60;;;;;;5034257;28;20021;-86
2022/12/10 00:58:31;;;;;;;14.25;8.68;;;384.00;2329.60;;;;;;5034257;28;20092;-87
2022/12/10 01:01:26;;;;;;;14.50;8.00;;;358.90;2329.60;;;;;;5033951;28;20066;-86
2022/12/10 01:03:56;;;;;;;15.55;9.45;;;358.90;2329.60;;;;;;5033983;28;20269;-87
2022/12/10 01:06:24;;;;;;;15.30;8.93;;;358.90;2329.60;;;;;;5034016;28;20057;-86
2022/12/10 01:08:53;;;;;;;16.42;8.00;;;359.00;2329.60;;;;;;5033758;28;20025;-86
2022/12/10 01:11:20;;;;;;;15.15;8.70;;;359.00;2329.60;;;;;;5033739;28;20025;-85
2022/12/10 01:13:47;;;;;;;17.40;8.07;;;359.00;2329.60;;;;;;5027764;28;20033;-86
2022/12/10 01:16:17;;;;;;;13.27;7.78;;;359.00;2329.60;;;;;;5013925;28;20080;-86
2022/12/10 01:18:43;;;;;;;22.88;10.35;;;359.00;2329.60;;;;;;5013801;28;20057;-87
2022/12/10 01:21:12;;;;;;;19.63;9.13;;;359.00;2329.60;;;;;;5013997;28;20076;-87
2022/12/10 01:23:40;;;;;;;17.17;9.25;;;359.00;2329.60;;;;;;5014001;28;20112;-87
2022/12/10 01:26:10;;;;;;;20.80;8.70;;;359.00;2329.60;;;;;;5014125;28;20382;-86
2022/12/10 01:28:38;;;;;;;18.48;9.48;;;359.00;2329.60;;;;;;5013992;28;20109;-85
2022/12/10 01:31:32;;;;;;;19.83;10.43;;;359.00;2329.60;;;;;;5014021;28;20044;-87
2022/12/10 01:33:58;;;;;;;16.45;10.23;;;358.90;2329.60;;;;;;5012358;28;20478;-86
2022/12/10 01:36:36;;;;;;;18.67;9.45;;;358.90;2329.60;;;;;;5014121;28;20470;-88
2022/12/10 01:39:03;;;;;;;20.02;9.98;;;358.90;2329.60;;;;;;5014137;28;20482;-87
2022/12/10 01:41:34;;;;;;;21.42;10.88;;;358.80;2329.60;;;;;;5013909;28;20126;-86
2022/12/10 01:44:20;;;;;;;18.27;10.73;;;358.80;2329.60;;;;;;5014234;28;20462;-85
2022/12/10 01:46:48;;;;;;;15.27;7.75;;;358.70;2329.60;;;;;;4993337;28;20037;-86
2022/12/10 01:49:26;;;;;;;16.38;8.98;;;358.70;2329.60;;;;;;5013767;28;20033;-87
2022/12/10 01:51:55;;;;;;;14.20;8.68;;;358.60;2329.60;;;;;;5013751;28;20120;-87
2022/12/10 01:54:26;;;;;;;18.23;9.43;;;358.60;2329.60;;;;;;5013870;28;20534;-86
2022/12/10 01:57:05;;;;;;;22.08;9.50;;;358.60;2329.60;;;;;;5046843;28;20026;-87
2022/12/10 01:59:33;;;;;;;22.10;9.68;;;358.60;2329.60;;;;;;4997405;28;20378;-86
2022/12/10 02:02:36;;;;;;;16.15;8.65;;;358.60;2329.60;;;;;;5013876;28;20454;-87
2022/12/10 02:05:06;;;;;;;;;;;358.60;2329.60;;;;;;4985515;28;20121;-86
2022/12/10 02:07:35;;;;;;;20.60;10.82;;;358.60;2329.60;;;;;;5017829;28;19971;-86
2022/12/10 02:10:19;;;;;;;22.52;11.90;;;358.50;2329.60;;;;;;5018451;28;20026;-86
2022/12/10 02:12:51;;;;;;;19.00;9.35;;;358.50;2329.60;;;;;;5019315;28;20412;-86
2022/12/10 02:15:29;;;;;;;18.05;8.60;;;358.70;2329.60;;;;;;5039921;28;20034;-87
2022/12/10 02:17:59;;;;;;;18.60;9.25;;;358.70;2329.60;;;;;;5070319;28;20033;-87
2022/12/10 02:20:34;;;;;;;14.48;8.07;;;358.70;2329.60;;;;;;5037047;28;20033;-87
2022/12/10 02:23:10;;;;;;;17.20;9.25;;;358.70;2329.60;;;;;;5070580;28;20561;-87
2022/12/10 02:25:45;;;;;;;14.30;8.48;;;358.70;2329.60;;;;;;5037312;28;20146;-86
2022/12/10 02:28:42;;;;;;;22.20;9.02;;;358.70;2329.60;;;;;;5036892;28;20578;-86
2022/12/10 02:31:11;;;;;;;18.42;8.27;;;358.80;2329.60;;;;;;5036517;28;20116;-87
2022/12/10 02:33:43;;;;;;;16.52;7.97;;;358.70;2329.60;;;;;;5070311;28;20060;-87
2022/12/10 02:36:11;;;;;;;16.83;8.63;;;358.80;2329.60;;;;;;5035749;28;20560;-86
2022/12/10 02:38:39;;;;;;;15.65;8.00;;;358.80;2329.60;;;;;;5069701;28;20282;-86
2022/12/10 02:41:13;;;;;;;14.63;7.35;;;358.80;2329.60;;;;;;5036304;28;20033;-87
2022/12/10 02:43:39;;;;;;;15.88;7.90;;;358.80;2329.60;;;;;;5036765;28;20381;-87
2022/12/10 02:46:06;;;;;;;20.67;8.80;;;358.90;2329.60;;;;;;5035988;28;20128;-87
2022/12/10 02:48:33;;;;;;;17.52;8.70;;;358.60;2329.60;;;;;;5036504;28;20114;-87
2022/12/10 02:50:59;;;;;;;15.82;7.20;;;358.90;2329.60;;;;;;5036494;28;20033;-86
2022/12/10 02:53:25;;;;;;;18.42;7.68;;;358.90;2329.60;;;;;;5036418;28;20125;-87
2022/12/10 02:56:16;;;;;;;14.25;8.32;;;358.90;2329.60;;;;;;5036360;28;20457;-86
2022/12/10 02:58:56;;;;;;;19.05;9.13;;;359.00;2329.60;;;;;;5036548;28;20477;-87
2022/12/10 03:01:34;;;;;;;18.67;8.93;;;359.00;2329.60;;;;;;5036492;28;20542;-87
2022/12/10 03:04:32;;;;;;;18.42;7.32;;;359.00;2329.60;;;;;;5036678;28;20029;-87
2022/12/10 03:07:07;;;;;;;17.23;8.55;;;359.00;2329.60;;;;;;5028153;28;20091;-85
2022/12/10 03:09:44;;;;;;;17.80;7.53;;;359.00;2329.60;;;;;;5036520;28;20026;-86
2022/12/10 03:12:36;;;;;;;22.02;10.07;;;359.00;2329.60;;;;;;5036466;28;20029;-86
2022/12/10 03:15:08;;;;;;;18.85;7.10;;;359.00;2329.60;;;;;;5068839;28;20120;-87
2022/12/10 03:17:36;;;;;;;21.67;8.80;;;359.10;2329.60;;;;;;5035993;28;20048;-86
2022/12/10 03:20:04;;;;;;;18.70;8.13;;;359.00;2329.60;;;;;;5036320;28;20191;-86
2022/12/10 03:22:32;;;;;;;14.35;8.18;;;359.10;2329.60;;;;;;5036212;28;20040;-86
2022/12/10 03:24:59;;;;;;;13.48;6.90;;;359.10;2329.60;;;;;;5037021;28;20451;-86
2022/12/10 03:27:27;;;;;;;15.07;7.40;;;359.10;2329.60;;;;;;5037241;28;20021;-86
2022/12/10 03:29:57;;;;;;;17.88;7.63;;;359.10;2329.60;;;;;;5036601;28;20033;-87
2022/12/10 03:32:26;;;;;;;18.85;8.02;;;359.10;2329.60;;;;;;5037457;28;20021;-87
2022/12/10 03:34:54;;;;;;;16.73;8.43;;;359.10;2329.60;;;;;;5036537;28;20025;-85
2022/12/10 03:37:22;;;;;;;11.95;7.25;;;359.10;2329.60;;;;;;5036313;28;20133;-85
2022/12/10 03:39:47;;;;;;;17.05;8.30;;;359.10;2329.60;;;;;;5071335;28;20063;-87
2022/12/10 03:42:13;;;;;;;14.23;8.20;;;359.00;2329.60;;;;;;5070998;28;20029;-86
2022/12/10 03:44:42;;;;;;;20.95;9.98;;;359.00;2329.60;;;;;;5069567;28;20029;-86
2022/12/10 03:47:12;;;;;;;20.70;10.32;;;359.00;2329.60;;;;;;5069394;28;20030;-85
2022/12/10 03:49:38;;;;;;;16.88;8.23;;;359.00;2329.60;;;;;;5036427;28;20026;-85
2022/12/10 03:52:04;;;;;;;16.00;8.70;;;359.00;2329.60;;;;;;5069143;28;20120;-85
2022/12/10 03:54:30;;;;;;;21.65;9.70;;;358.80;2329.60;;;;;;5072035;28;20025;-86
2022/12/10 03:56:55;;;;;;;19.25;10.20;;;359.00;2329.60;;;;;;5072131;28;20026;-85
2022/12/10 03:59:21;;;;;;;17.83;8.90;;;359.00;2329.60;;;;;;5040083;28;20030;-84
2022/12/10 04:01:47;;;;;;;21.40;9.38;;;359.00;2329.60;;;;;;5073782;28;20491;-85
2022/12/10 04:04:13;;;;;;;16.33;8.13;;;358.90;2329.60;;;;;;5072434;28;20374;-85
2022/12/10 04:06:40;;;;;;;24.15;14.07;;;359.00;2329.60;;;;;;5073085;28;20060;-85
2022/12/10 04:09:06;;;;;;;23.13;14.05;;;359.00;2329.60;;;;;;5039293;28;20032;-85
2022/12/10 04:11:32;;;;;;;22.40;12.57;;;359.00;2329.60;;;;;;5035093;28;20033;-87
2022/12/10 04:16:42;;;;;;;20.17;11.30;;;358.90;2329.60;;;;;;5036071;28;20033;-85
2022/12/10 04:19:13;;;;;;;15.63;10.60;;;358.90;2329.60;;;;;;5034768;28;20025;-86
2022/12/10 04:27:21;;;;;;;13.18;7.90;;;358.90;2329.60;;;;;;5034843;28;20052;-86
2022/12/10 04:29:47;;;;;;;16.55;8.85;;;358.90;2329.60;;;;;;5067958;28;20036;-87
2022/12/10 04:32:13;;;;;;;18.40;8.48;;;358.90;2329.60;;;;;;5067694;28;20048;-87
2022/12/10 04:34:38;;;;;;;18.73;8.82;;;358.90;2329.60;;;;;;5068011;28;20026;-85
2022/12/10 04:37:05;;;;;;;17.52;10.70;;;358.90;2329.60;;;;;;5052002;28;20052;-87
2022/12/10 04:39:31;;;;;;;13.52;6.97;;;358.90;2329.60;;;;;;5014482;28;20030;-86
2022/12/10 04:41:58;;;;;;;16.33;7.72;;;359.00;2329.60;;;;;;5014444;28;20133;-86
2022/12/10 04:44:24;;;;;;;17.50;6.97;;;359.00;2329.60;;;;;;5014698;28;20084;-87
2022/12/10 04:46:50;;;;;;;17.85;7.03;;;359.00;2329.60;;;;;;5016610;28;20029;-86
2022/12/10 04:49:16;;;;;;;12.70;8.38;;;359.10;2329.60;;;;;;5034216;28;20029;-85
2022/12/10 04:51:42;;;;;;;14.88;8.27;;;359.10;2329.60;;;;;;5033944;28;20120;-85
2022/12/10 04:54:09;;;;;;;15.23;8.68;;;359.10;2329.60;;;;;;5033991;28;20448;-86
2022/12/10 04:56:35;;;;;;;23.65;9.65;;;359.10;2329.60;;;;;;5034218;28;20057;-86
2022/12/10 04:59:02;;;;;;;22.83;10.15;;;359.10;2329.60;;;;;;5034222;28;20022;-86
2022/12/10 05:01:29;;;;;;;20.48;9.85;;;359.10;2329.60;;;;;;5034116;28;20029;-87
2022/12/10 05:03:57;;;;;;;21.45;10.52;;;359.10;2329.60;;;;;;5034134;28;20374;-85
2022/12/10 05:06:23;;;;;;;14.93;8.85;;;359.10;2329.60;;;;;;5033930;28;20029;-86
2022/12/10 05:08:49;;;;;;;18.50;8.40;;;359.10;2329.60;;;;;;5033819;28;20032;-87
2022/12/10 05:11:20;;;;;;;15.60;6.65;;;359.10;2329.60;;;;;;5033969;28;20037;-85
2022/12/10 05:13:46;;;;;;;13.40;6.75;;;359.10;2329.60;;;;;;5033876;28;20116;-86
2022/12/10 05:16:15;;;;;;;17.90;8.10;;;359.20;2329.60;;;;;;5033788;28;20021;-86
2022/12/10 05:18:41;;;;;;;13.52;6.70;;;359.10;2329.60;;;;;;5034056;28;20167;-86
2022/12/10 05:21:11;;;;;;;13.15;6.30;;;359.20;2329.60;;;;;;5033846;28;20540;-86
2022/12/10 05:23:38;;;;;;;13.82;6.22;;;359.20;2329.60;;;;;;5034164;28;20193;-88
2022/12/10 05:26:10;;;;;;;14.25;6.97;;;359.30;2329.60;;;;;;5033908;28;20035;-86
2022/12/10 05:28:38;;;;;;;19.30;8.57;;;359.30;2329.60;;;;;;5033687;28;20036;-87
2022/12/10 05:31:05;;;;;;;25.00;9.02;;;359.30;2329.60;;;;;;5033366;28;20040;-86
2022/12/10 05:33:32;;;;;;;22.58;10.30;;;359.30;2329.60;;;;;;5033680;28;20033;-87
2022/12/10 05:36:00;;;;;;;21.45;9.50;;;359.30;2329.60;;;;;;5033773;28;20030;-86
2022/12/10 05:38:27;;;;;;;14.85;7.28;;;359.30;2329.60;;;;;;5033190;28;20050;-86
2022/12/10 05:40:53;;;;;;;18.67;7.88;;;359.20;2329.60;;;;;;5066947;28;20034;-87
2022/12/10 05:43:19;;;;;;;22.40;11.30;;;359.20;2329.60;;;;;;5066873;28;20029;-87
2022/12/10 05:45:46;;;;;;;22.58;15.48;;;359.00;2329.60;;;;;;5017171;28;20030;-86
2022/12/10 05:48:14;;;;;;;29.92;15.48;;;359.10;2329.60;;;;;;5030551;28;20109;-86
2022/12/10 05:50:40;;;;;;;21.48;13.25;;;359.10;2329.60;;;;;;5053447;28;20017;-87
2022/12/10 05:53:05;;;;;;;16.27;10.75;;;359.10;2329.60;;;;;;5054298;28;20010;-85
2022/12/10 05:55:32;;;;;;;17.65;10.20;;;359.10;2329.60;;;;;;5054591;28;20017;-84
2022/12/10 05:57:59;;;;;;;20.30;11.02;;;359.10;2329.60;;;;;;5054264;28;20032;-83
2022/12/10 06:00:25;;;;;;;10.95;6.78;;;359.10;2329.60;;;;;;5054272;28;20032;-85
2022/12/10 06:02:51;;;;;;;32.28;15.45;;;359.10;2329.60;;;;;;5062372;28;20065;-88
2022/12/10 06:05:17;;;;;;;30.38;14.52;;;359.10;2329.60;;;;;;5034362;28;20026;-85
2022/12/10 06:07:43;;;;;;;32.10;15.05;;;359.20;2329.60;;;;;;5033038;28;20048;-87
2022/12/10 06:10:10;;;;;;;23.08;11.18;;;359.10;2329.60;;;;;;5032012;28;20117;-87
2022/12/10 06:12:36;;;;;;;20.48;10.10;;;359.00;2329.60;;;;;;5031933;28;20033;-86
2022/12/10 06:15:03;;;;;;;14.02;6.75;;;359.10;2329.60;;;;;;5034129;28;20056;-86
2022/12/10 06:17:28;;;;;;;22.88;7.18;;;359.30;2329.60;;;;;;5068295;28;20065;-87
2022/12/10 06:19:54;;;;;;;30.30;13.52;;;359.30;2329.60;;;;;;5067992;28;20140;-86
2022/12/10 06:22:20;;;;;;;27.52;12.05;;;359.20;2329.60;;;;;;5035422;28;20028;-86
2022/12/10 06:24:46;;;;;;;24.75;12.85;;;359.20;2329.60;;;;;;5037305;28;20026;-86
2022/12/10 06:27:11;;;;;;;14.65;8.70;;;359.20;2329.60;;;;;;5036046;28;20040;-89
2022/12/10 06:29:37;;;;;;;17.33;8.15;;;359.30;2329.60;;;;;;5066738;28;20033;-88
2022/12/10 06:32:03;;;;;;;17.88;8.75;;;359.30;2329.60;;;;;;5066485;28;20022;-88
2022/12/10 06:34:29;;;;;;;19.02;9.38;;;359.30;2329.60;;;;;;5066765;28;20030;-87
2022/12/10 06:36:55;;;;;;;34.25;18.38;;;359.30;2329.60;;;;;;5069063;28;20116;-88
2022/12/10 06:39:20;;;;;;;61.05;34.17;;;359.20;2329.60;;;;;;5036716;28;20029;-88
2022/12/10 06:41:46;;;;;;;53.03;33.22;;;359.20;2329.60;;;;;;5037007;28;20037;-87
2022/12/10 06:44:12;;;;;;;41.63;24.52;;;359.30;2329.60;;;;;;5036674;28;20025;-87
2022/12/10 06:46:40;;;;;;;35.72;19.88;;;359.20;2329.60;;;;;;5036735;28;20081;-87
2022/12/10 06:49:07;;;;;;;23.92;13.43;;;359.10;2329.60;;;;;;5036482;28;20029;-88
2022/12/10 06:51:33;;;;;;;25.08;15.38;;;359.10;2329.60;;;;;;5039921;28;20075;-89
2022/12/10 06:53:59;;;;;;;23.38;12.45;;;359.10;2329.60;;;;;;5040143;28;20075;-87
2022/12/10 06:56:25;;;;;;;17.55;8.85;;;359.10;2329.60;;;;;;5040073;28;20036;-88
2022/12/10 06:58:50;;;;;;;19.20;9.30;;;359.20;2329.60;;;;;;5040008;28;20021;-87
2022/12/10 07:01:22;;;;;;;18.42;8.98;;;359.20;2329.60;;;;;;5039903;28;20473;-89
2022/12/10 07:03:52;;;;;;;20.42;7.68;;;359.20;2329.60;;;;;;5040051;28;20029;-88
2022/12/10 07:06:19;;;;;;;12.60;6.25;;;359.30;2329.60;;;;;;5039760;28;20029;-87
2022/12/10 07:08:46;;;;;;;14.50;6.65;;;359.30;2329.60;;;;;;5039972;28;20021;-89
2022/12/10 07:11:15;;;;;;;12.85;6.80;;;359.30;2329.60;;;;;;5041521;28;20055;-87
2022/12/10 07:13:41;;;;;;;13.65;6.82;;;384.10;2329.60;;;;;;5047359;28;20461;-88
2022/12/10 07:16:20;;;;;;;17.20;6.57;;;384.20;2329.60;;;;;;5049358;28;20025;-86
2022/12/10 07:18:47;;;;;;;18.95;7.20;;;384.10;2329.60;;;;;;5040636;28;20032;-88
2022/12/10 07:21:21;;;;;;;13.35;5.57;;;384.10;2329.60;;;;;;5039190;28;20495;-88
2022/12/10 07:23:47;;;;;;;10.55;5.57;;;384.10;2329.60;;;;;;5039472;28;20037;-88
2022/12/10 07:26:13;;;;;;;13.93;5.28;;;384.20;2329.60;;;;;;5039515;28;20025;-87
2022/12/10 07:28:39;;;;;;;12.02;6.45;;;384.20;2329.60;;;;;;5039422;28;20029;-87
2022/12/10 07:31:07;;;;;;;13.63;7.63;;;384.20;2329.60;;;;;;5038986;28;20119;-87
2022/12/10 07:33:33;;;;;;;19.88;7.38;;;384.30;2329.60;;;;;;5056960;28;20029;-87
2022/12/10 07:35:58;;;;;;;15.13;8.25;;;384.20;2329.60;;;;;;5030944;28;20032;-88
2022/12/10 07:38:24;;;;;;;14.63;6.57;;;384.20;2329.60;;;;;;5019184;28;20056;-88
2022/12/10 07:40:51;;;;;;;29.80;10.50;;;384.20;2329.60;;;;;;5018892;28;20033;-89
2022/12/10 07:43:17;;;;;;;23.75;10.98;;;384.10;2329.60;;;;;;5019051;28;20017;-89
2022/12/10 07:45:43;;;;;;;18.90;10.35;;;384.10;2329.60;;;;;;5020611;28;20025;-88
2022/12/10 07:48:10;;;;;;;20.27;9.57;;;384.20;2329.60;;;;;;5018928;28;20021;-87
2022/12/10 07:50:36;;;;;;;17.10;8.70;;;384.20;2329.60;;;;;;5018816;28;20044;-89
2022/12/10 07:53:01;;;;;;;15.23;7.35;;;384.20;2329.60;;;;;;5018859;28;20029;-88
2022/12/10 07:55:27;;;;;;;13.80;7.93;;;384.30;2329.60;;;;;;5019042;28;20026;-86
2022/12/10 07:57:53;;;;;;;16.05;6.50;;;384.30;2329.60;;;;;;5018938;28;20366;-88
2022/12/10 08:00:19;;;;;;;14.40;6.47;;;384.40;2329.60;;;;;;5018538;28;20087;-88
2022/12/10 08:02:44;;;;;;;19.98;6.20;;;384.30;2329.60;;;;;;5019826;28;20037;-89
2022/12/10 08:05:10;;;;;;;11.52;6.47;;;384.40;2329.60;;;;;;5019152;28;20029;-87
2022/12/10 08:07:36;;;;;;;13.73;5.78;;;384.30;2329.60;;;;;;5018717;28;20029;-89
2022/12/10 08:10:03;;;;;;;12.35;6.88;;;384.40;2329.60;;;;;;5018748;28;20030;-87
2022/12/10 08:12:29;;;;;;;18.33;6.68;;;384.60;2329.60;;;;;;5018458;28;20022;-84
2022/12/10 08:14:54;;;;;;;13.18;6.40;;;384.40;2329.60;;;;;;5018764;28;20032;-88
2022/12/10 08:17:20;;;;;;;15.88;10.93;;;384.40;2329.60;;;;;;5018531;28;20029;-88
2022/12/10 08:19:46;;;;;;;15.48;7.50;;;384.40;2329.60;;;;;;5018534;28;20428;-88
2022/12/10 08:22:12;;;;;;;21.60;16.33;;;384.30;2329.60;;;;;;5018437;28;20037;-88
2022/12/10 08:24:37;;;;;;;11.25;6.18;;;384.30;2329.60;;;;;;5018327;28;20021;-88
2022/12/10 08:27:03;;;;;;;11.88;6.82;;;384.40;2329.60;;;;;;5018385;28;20029;-89
2022/12/10 08:29:29;;;;;;;13.95;8.32;;;384.50;2329.60;;;;;;5018252;28;20025;-88
2022/12/10 08:31:55;;;;;;;15.73;7.80;;;384.40;2329.60;;;;;;5018310;28;20029;-88
2022/12/10 08:34:21;;;;;;;13.10;6.22;;;384.40;2329.60;;;;;;5018089;28;20505;-88
2022/12/10 08:36:46;;;;;;;12.35;4.90;;;384.50;2329.60;;;;;;5033716;28;20159;-89
2022/12/10 08:39:16;;;;;;;14.15;6.03;;;384.50;2329.60;;;;;;5037924;28;20083;-88
2022/12/10 08:41:46;;;;;;;12.27;5.07;;;384.50;2329.60;;;;;;5037775;28;20123;-89
2022/12/10 08:44:13;;;;;;;15.35;8.15;;;384.70;2329.60;;;;;;5037978;28;20099;-91
2022/12/10 08:46:39;;;;;;;22.02;9.35;;;384.70;2329.60;;;;;;5037984;28;20061;-91
2022/12/10 08:49:06;;;;;;;13.10;6.85;;;384.70;2329.60;;;;;;5037781;28;20029;-90
2022/12/10 08:51:32;;;;;;;22.33;6.55;;;409.70;2355.20;;;;;;5037687;28;20025;-90
2022/12/10 08:53:58;;;;;;;16.73;6.80;;;384.80;2329.60;;;;;;5054339;28;20036;-89
2022/12/10 08:56:24;;;;;;;16.10;8.05;;;384.90;2329.60;;;;;;5037626;28;20033;-91
2022/12/10 08:58:50;;;;;;;17.50;8.15;;;384.90;2329.60;;;;;;5037107;28;20033;-88
2022/12/10 09:01:17;;;;;;;20.67;9.93;;;409.60;2355.20;;;;;;5037047;28;20037;-87
2022/12/10 09:03:43;;;;;;;12.10;7.45;;;409.60;2355.20;;;;;;5037220;28;20074;-87
2022/12/10 09:06:12;;;;;;;11.20;6.40;;;409.70;2355.20;;;;;;5036746;28;20479;-87
2022/12/10 09:08:38;;;;;;;12.30;5.68;;;409.70;2355.20;;;;;;5036785;28;20032;-86
2022/12/10 09:11:14;;;;;;;12.13;5.85;;;409.70;2355.20;;;;;;5036780;28;20526;-86
2022/12/10 09:13:40;;;;;;;17.48;8.55;;;409.70;2355.20;;;;;;5034110;28;20024;-86
2022/12/10 09:16:06;;;;;;;12.45;6.53;;;409.70;2355.20;;;;;;5036340;28;20082;-86
2022/12/10 09:18:32;;;;;;;15.48;11.52;;;409.80;2355.20;;;;;;5035890;28;20029;-85
2022/12/10 09:20:57;;;;;;;17.23;12.65;;;409.80;2355.20;;;;;;5069573;28;20029;-85
2022/12/10 09:23:24;;;;;;;16.58;9.55;;;409.80;2355.20;;;;;;5069751;28;20021;-85
2022/12/10 09:25:50;;;;;;;16.63;8.68;;;409.90;2355.20;;;;;;5036181;28;20023;-85
2022/12/10 09:28:15;;;;;;;16.83;11.57;;;409.90;2355.20;;;;;;5035928;28;20025;-85
2022/12/10 09:30:42;;;;;;;14.88;8.52;;;410.00;2355.20;;;;;;5069901;28;20033;-85
2022/12/10 09:33:07;;;;;;;20.95;11.07;;;410.00;2355.20;;;;;;5035849;28;20052;-82
2022/12/10 09:35:33;;;;;;;16.83;10.52;;;410.10;2355.20;;;;;;5069474;28;20057;-85
2022/12/10 09:37:59;;;;;;;17.48;8.52;;;410.20;2355.20;;;;;;5069227;28;20045;-84
2022/12/10 09:40:36;;;;;;;16.58;8.23;;;410.20;2355.20;;;;;;5035649;28;20116;-85
2022/12/10 09:43:11;;;;;;;13.10;8.43;;;410.20;2355.20;;;;;;5036436;28;20569;-86
2022/12/10 09:45:46;;;;;;;19.90;12.70;;;410.30;2355.20;;;;;;5036395;28;20056;-86
2022/12/10 09:48:25;;;;;;;24.70;15.57;;;410.30;2355.20;;;;;;5036575;28;20116;-86
2022/12/10 09:51:09;;;;;;;13.00;6.65;;;410.30;2355.20;;;;;;5036025;28;20029;-86
2022/12/10 09:53:37;;;;;;;14.70;6.75;;;410.40;2355.20;;;;;;5036466;28;20408;-86
2022/12/10 09:56:04;;;;;;;8.20;4.70;;;410.50;2355.20;;;;;;5036319;28;20025;-86
2022/12/10 09:58:30;;;;;;;10.18;5.32;;;435.20;2355.20;;;;;;5036163;28;20032;-86
2022/12/10 10:01:05;;;;;;;9.65;3.97;;;435.30;2355.20;;;;;;5035823;28;20128;-86
2022/12/10 10:03:42;;;;;;;6.15;3.45;;;435.30;2355.20;;;;;;5036159;28;20036;-87
2022/12/10 10:06:16;;;;;;;8.57;6.05;;;435.40;2355.20;;;;;;5036269;28;20372;-86
2022/12/10 10:08:48;;;;;;;10.80;5.18;;;435.40;2355.20;;;;;;5036541;28;20021;-87
2022/12/10 10:11:24;;;;;;;9.68;5.35;;;435.40;2355.20;;;;;;5036542;28;20033;-89
2022/12/10 10:14:01;;;;;;;12.30;6.18;;;435.40;2355.20;;;;;;5036649;28;20423;-88
2022/12/10 10:16:52;;;;;;;11.75;5.88;;;435.40;2355.20;;;;;;5036275;28;20025;-86
2022/12/10 10:19:25;;;;;;;9.02;4.97;;;435.40;2355.20;;;;;;5036241;28;20033;-88
2022/12/10 10:21:52;;;;;;;10.75;4.20;;;435.40;2355.20;;;;;;5036177;28;20032;-86
2022/12/10 10:24:35;;;;;;;11.02;4.75;;;435.40;2355.20;;;;;;5036278;28;20029;-88
2022/12/10 10:27:26;;;;;;;8.35;4.05;;;435.40;2355.20;;;;;;5040265;28;20025;-88
2022/12/10 10:29:54;;;;;;;8.23;4.65;;;435.30;2355.20;;;;;;5040324;28;20021;-88
2022/12/10 10:32:23;;;;;;;12.35;4.32;;;435.30;2355.20;;;;;;5040194;28;20025;-88
2022/12/10 10:34:59;;;;;;;8.10;3.83;;;435.30;2355.20;;;;;;5039847;28;20021;-87
2022/12/10 10:37:41;;;;;;;9.93;5.13;;;435.60;2355.20;;;;;;5040508;28;20131;-88
2022/12/10 10:40:24;;;;;;;;;;;435.40;2355.20;;;;;;5040529;28;20033;-88
2022/12/10 10:42:54;;;;;;;8.43;4.65;;;435.50;2355.20;;;;;;5039998;28;19912;-89
2022/12/10 10:45:35;;;;;;;8.38;4.40;;;435.50;2355.20;;;;;;5039977;28;20039;-89
2022/12/10 10:48:16;;;;;;;10.40;4.68;;;435.50;2355.20;;;;;;5039863;28;20036;-88
2022/12/10 10:50:45;;;;;;;14.60;6.53;;;435.60;2355.20;;;;;;5040125;28;20124;-87
2022/12/10 10:53:30;;;;;;;12.35;6.97;;;435.60;2355.20;;;;;;5040489;28;20461;-89
2022/12/10 10:56:26;;;;;;;12.57;5.93;;;435.60;2355.20;;;;;;5039766;28;20040;-88
2022/12/10 10:59:13;;;;;;;15.05;6.80;;;435.60;2355.20;;;;;;5023159;28;20025;-87
2022/12/10 11:01:45;;;;;;;13.55;5.55;;;435.60;2355.20;;;;;;5039516;28;20041;-87
2022/12/10 11:04:12;;;;;;;13.70;7.32;;;435.60;2355.20;;;;;;5039274;28;20479;-87
2022/12/10 11:06:40;;;;;;;14.38;5.63;;;435.60;2355.20;;;;;;5039529;28;20127;-87
2022/12/10 11:09:06;;;;;;;17.27;7.90;;;435.60;2355.20;;;;;;5039596;28;20025;-87
2022/12/10 11:11:40;;;;;;;9.60;4.35;;;435.60;2355.20;;;;;;5039592;28;20036;-87
2022/12/10 11:14:25;;;;;;;13.63;5.57;;;435.50;2355.20;;;;;;5039529;28;20035;-87
2022/12/10 11:16:59;;;;;;;14.50;4.90;;;435.50;2355.20;;;;;;5039390;28;20039;-87
2022/12/10 11:19:26;;;;;;;12.80;7.13;;;435.40;2355.20;;;;;;5039299;28;20025;-87
2022/12/10 11:21:52;;;;;;;12.63;6.22;;;435.40;2355.20;;;;;;5039423;28;20033;-88
2022/12/10 11:24:20;;;;;;;15.82;7.78;;;435.40;2355.20;;;;;;5039537;28;20028;-88
2022/12/10 11:27:07;;;;;;;16.35;7.32;;;435.40;2355.20;;;;;;5039420;28;20031;-87
2022/12/10 11:29:52;;;;;;;13.48;6.75;;;435.30;2355.20;;;;;;5040053;28;20029;-87
2022/12/10 11:32:48;;;;;;;10.07;6.13;;;435.30;2355.20;;;;;;5039411;28;20029;-88
2022/12/10 11:35:40;;;;;;;12.52;6.05;;;435.30;2355.20;;;;;;5037903;28;20033;-89
2022/12/10 11:38:29;;;;;;;72.25;45.25;;;435.30;2355.20;;;;;;5019510;28;20505;-88
2022/12/10 11:41:06;;;;;;;9.65;5.93;;;435.30;2355.20;;;;;;5019329;28;20033;-88
2022/12/10 11:44:04;;;;;;;15.18;7.18;;;435.20;2355.20;;;;;;5018808;28;20355;-88
2022/12/10 11:46:50;;;;;;;13.63;6.88;;;435.20;2355.20;;;;;;5005249;28;20038;-85
2022/12/10 11:49:27;;;;;;;13.15;8.10;;;435.20;2355.20;;;;;;5051802;28;20048;-85
2022/12/10 11:52:08;;;;;;;9.68;5.40;;;435.20;2355.20;;;;;;5038771;28;20028;-86
2022/12/10 11:54:34;;;;;;;23.52;10.50;;;435.20;2355.20;;;;;;5036642;28;20041;-85
2022/12/10 11:57:22;;;;;;;13.20;7.65;;;410.50;2355.20;;;;;;5056102;28;20032;-84
2022/12/10 12:00:13;;;;;;;16.35;7.55;;;410.50;2355.20;;;;;;5037833;28;20063;-85
2022/12/10 12:02:53;;;;;;;16.02;7.47;;;410.50;2355.20;;;;;;5038576;28;20029;-84
2022/12/10 12:05:40;;;;;;;11.77;6.25;;;410.50;2355.20;;;;;;5056333;28;20025;-86
2022/12/10 12:08:25;;;;;;;14.48;7.13;;;410.50;2355.20;;;;;;5038526;28;20021;-84
2022/12/10 12:11:14;;;;;;;15.63;6.70;;;410.50;2355.20;;;;;;5038532;28;20032;-85
2022/12/10 12:13:59;;;;;;;17.45;7.53;;;410.50;2355.20;;;;;;5029786;28;20036;-86
2022/12/10 12:16:37;;;;;;;18.38;7.90;;;410.40;2355.20;;;;;;5055092;28;20029;-84
2022/12/10 12:19:28;;;;;;;11.65;6.05;;;410.40;2355.20;;;;;;5035471;28;20082;-86
2022/12/10 12:21:56;;;;;;;15.05;8.07;;;409.90;2355.20;;;;;;5074211;28;20127;-84
2022/12/10 12:24:33;;;;;;;20.70;11.05;;;410.30;2355.20;;;;;;5055204;28;20457;-86
2022/12/10 12:27:19;;;;;;;17.55;8.05;;;410.30;2355.20;;;;;;5037981;28;20112;-89
2022/12/10 12:30:06;;;;;;;15.57;6.70;;;410.30;2355.20;;;;;;5037498;28;20032;-85
2022/12/10 12:32:50;;;;;;;17.40;8.20;;;410.30;2355.20;;;;;;5037577;28;20055;-85